createdAt,value
2018-12-10T00:02:19.745Z,4.66
2018-12-10T00:04:48.820Z,4.76
2018-12-10T00:07:18.669Z,4.83
2018-12-10T00:09:47.753Z,4.74
2018-12-10T00:12:16.848Z,4.49
2018-12-10T00:14:45.974Z,4.19
2018-12-10T00:17:15.154Z,4.01
2018-12-10T00:19:44.242Z,3.96
2018-12-10T00:22:13.443Z,3.90
2018-12-10T00:24:43.183Z,3.93
2018-12-10T00:27:12.170Z,3.92
2018-12-10T00:29:41.166Z,4.02
2018-12-10T00:32:10.238Z,4.10
2018-12-10T00:34:39.283Z,4.18
2018-12-10T00:37:09.307Z,4.19
2018-12-10T00:39:38.443Z,4.08
2018-12-10T00:42:07.599Z,4.10
2018-12-10T00:44:36.658Z,4.21
2018-12-10T00:47:05.729Z,4.25
2018-12-10T00:49:34.785Z,4.14
2018-12-10T00:52:04.039Z,4.03
2018-12-10T00:54:33.047Z,3.93
2018-12-10T00:57:02.082Z,3.84
2018-12-10T00:59:31.163Z,3.74
2018-12-10T01:02:00.221Z,3.76
2018-12-10T01:04:29.230Z,3.89
2018-12-10T01:06:58.894Z,3.92
2018-12-10T01:09:28.103Z,3.92
2018-12-10T01:11:57.989Z,3.79
2018-12-10T01:14:27.016Z,3.76
2018-12-10T01:16:56.179Z,3.65
2018-12-10T01:19:25.162Z,3.59
2018-12-10T01:21:54.273Z,3.59
2018-12-10T01:24:23.353Z,3.64
2018-12-10T01:26:52.331Z,3.46
2018-12-10T01:29:21.414Z,3.49
2018-12-10T01:31:50.466Z,3.58
2018-12-10T01:34:19.471Z,3.78
2018-12-10T01:36:48.533Z,3.99
2018-12-10T01:39:17.510Z,4.08
2018-12-10T01:41:46.779Z,4.05
2018-12-10T01:44:18.578Z,4.21
2018-12-10T01:46:47.641Z,4.33
2018-12-10T01:49:16.698Z,4.35
2018-12-10T01:51:45.691Z,4.25
2018-12-10T01:54:14.767Z,3.99
2018-12-10T01:56:43.825Z,3.77
2018-12-10T01:59:12.806Z,3.74
2018-12-10T02:01:42.061Z,3.69
2018-12-10T02:04:11.060Z,3.57
2018-12-10T02:06:40.133Z,3.45
2018-12-10T02:09:09.295Z,3.34
2018-12-10T02:11:38.381Z,3.33
2018-12-10T02:14:07.488Z,3.35
2018-12-10T02:16:38.005Z,3.38
2018-12-10T02:19:07.025Z,3.24
2018-12-10T02:21:36.108Z,3.20
2018-12-10T02:24:05.285Z,3.23
2018-12-10T02:26:34.419Z,3.36
2018-12-10T02:29:08.655Z,3.58
2018-12-10T02:31:39.464Z,3.74
2018-12-10T02:34:08.444Z,3.85
2018-12-10T02:36:37.450Z,3.89
2018-12-10T02:39:07.329Z,3.89
2018-12-10T02:41:36.515Z,3.91
2018-12-10T02:44:05.617Z,4.01
2018-12-10T02:46:34.617Z,4.10
2018-12-10T02:49:03.617Z,4.10
2018-12-10T02:51:32.582Z,4.09
2018-12-10T02:54:01.695Z,4.15
2018-12-10T02:56:31.489Z,4.15
2018-12-10T02:59:00.501Z,4.09
2018-12-10T03:01:29.502Z,4.06
2018-12-10T03:03:58.534Z,4.11
2018-12-10T03:06:27.687Z,4.10
2018-12-10T03:08:56.779Z,4.06
2018-12-10T03:11:25.906Z,4.06
2018-12-10T03:13:54.882Z,4.09
2018-12-10T03:16:24.004Z,4.09
2018-12-10T03:18:53.005Z,4.08
2018-12-10T03:21:22.029Z,3.97
2018-12-10T03:23:51.021Z,3.98
2018-12-10T03:26:20.073Z,3.99
2018-12-10T03:28:49.649Z,3.99
2018-12-10T03:31:18.755Z,4.09
2018-12-10T03:33:47.722Z,4.13
2018-12-10T03:36:16.709Z,4.08
2018-12-10T03:38:45.699Z,4.02
2018-12-10T03:41:14.700Z,4.02
2018-12-10T03:43:43.745Z,3.96
2018-12-10T03:46:12.789Z,3.86
2018-12-10T03:48:41.775Z,3.77
2018-12-10T03:51:10.790Z,3.70
2018-12-10T03:53:39.784Z,3.67
2018-12-10T03:56:08.755Z,3.80
2018-12-10T03:58:37.751Z,3.83
2018-12-10T04:01:06.875Z,3.94
2018-12-10T04:03:36.015Z,3.92
2018-12-10T04:06:05.159Z,3.75
2018-12-10T04:08:34.161Z,3.60
2018-12-10T04:11:03.320Z,3.38
2018-12-10T04:13:32.372Z,3.26
2018-12-10T04:16:01.552Z,3.13
2018-12-10T04:18:30.619Z,3.06
2018-12-10T04:20:59.682Z,3.07
2018-12-10T04:23:28.881Z,3.01
2018-12-10T04:25:57.874Z,2.89
2018-12-10T04:28:26.840Z,2.89
2018-12-10T04:30:55.834Z,2.79
2018-12-10T04:33:24.838Z,2.77
2018-12-10T04:35:53.832Z,2.68
2018-12-10T04:38:22.994Z,2.74
2018-12-10T04:40:51.968Z,2.66
2018-12-10T04:43:21.060Z,2.59
2018-12-10T04:45:50.153Z,2.71
2018-12-10T04:48:19.345Z,2.70
2018-12-10T04:50:48.404Z,2.69
2018-12-10T04:53:17.429Z,2.50
2018-12-10T04:55:46.540Z,2.38
2018-12-10T04:58:15.549Z,2.29
2018-12-10T05:00:44.634Z,2.30
2018-12-10T05:03:15.758Z,2.40
2018-12-10T05:05:44.820Z,2.44
2018-12-10T05:08:13.814Z,2.61
2018-12-10T05:10:42.801Z,2.74
2018-12-10T05:13:12.066Z,2.90
2018-12-10T05:15:41.141Z,3.00
2018-12-10T05:18:10.158Z,3.51
2018-12-10T05:20:39.353Z,3.77
2018-12-10T05:23:08.390Z,3.85
2018-12-10T05:25:37.386Z,3.84
2018-12-10T05:28:06.396Z,3.73
2018-12-10T05:30:35.391Z,3.60
2018-12-10T05:33:04.394Z,3.41
2018-12-10T05:35:33.537Z,3.25
2018-12-10T05:38:02.794Z,3.16
2018-12-10T05:40:31.779Z,3.27
2018-12-10T05:43:00.800Z,3.22
2018-12-10T05:45:29.815Z,3.19
2018-12-10T05:47:58.802Z,3.06
2018-12-10T05:50:27.826Z,3.00
2018-12-10T05:52:56.796Z,2.90
2018-12-10T05:55:25.775Z,2.87
2018-12-10T05:57:54.823Z,2.84
2018-12-10T06:00:23.921Z,2.88
2018-12-10T06:02:52.971Z,2.86
2018-12-10T06:05:22.073Z,2.83
2018-12-10T06:07:51.104Z,2.71
2018-12-10T06:10:20.229Z,2.58
2018-12-10T06:12:49.284Z,2.50
2018-12-10T06:15:18.588Z,2.45
2018-12-10T06:17:47.845Z,2.47
2018-12-10T06:20:16.949Z,2.54
2018-12-10T06:22:45.928Z,2.53
2018-12-10T06:25:15.071Z,2.62
2018-12-10T06:27:44.148Z,2.62
2018-12-10T06:30:13.233Z,2.62
2018-12-10T06:32:42.242Z,2.86
2018-12-10T06:35:11.309Z,3.10
2018-12-10T06:37:40.336Z,3.47
2018-12-10T06:40:09.494Z,3.58
2018-12-10T06:42:38.565Z,3.59
2018-12-10T06:45:07.732Z,3.44
2018-12-10T06:47:36.723Z,3.30
2018-12-10T06:50:06.290Z,3.27
2018-12-10T06:52:35.905Z,3.30
2018-12-10T06:55:05.277Z,3.18
2018-12-10T06:57:34.268Z,3.15
2018-12-10T07:00:04.692Z,3.23
2018-12-10T07:02:34.559Z,3.44
2018-12-10T07:05:03.609Z,3.40
2018-12-10T07:07:32.813Z,3.38
2018-12-10T07:10:01.814Z,3.27
2018-12-10T07:12:30.873Z,3.05
2018-12-10T07:14:59.961Z,3.03
2018-12-10T07:17:29.185Z,3.10
2018-12-10T07:19:58.193Z,3.06
2018-12-10T07:22:28.291Z,3.04
2018-12-10T07:24:57.445Z,2.94
2018-12-10T07:27:26.514Z,2.89
2018-12-10T07:29:55.556Z,3.03
2018-12-10T07:32:24.623Z,3.26
2018-12-10T07:34:53.715Z,3.32
2018-12-10T07:37:22.734Z,3.27
2018-12-10T07:39:51.757Z,3.29
2018-12-10T07:42:20.757Z,3.50
2018-12-10T07:44:49.891Z,3.43
2018-12-10T07:47:18.894Z,3.46
2018-12-10T07:49:48.039Z,3.56
2018-12-10T07:52:17.179Z,3.66
2018-12-10T07:54:46.213Z,3.69
2018-12-10T07:57:15.326Z,3.69
2018-12-10T07:59:44.321Z,3.71
2018-12-10T08:02:13.630Z,3.61
2018-12-10T08:04:42.689Z,3.63
2018-12-10T08:07:11.819Z,3.63
2018-12-10T08:09:41.278Z,3.89
2018-12-10T08:12:10.357Z,4.00
2018-12-10T08:14:39.365Z,4.01
2018-12-10T08:17:08.409Z,3.89
2018-12-10T08:19:37.487Z,3.85
2018-12-10T08:22:06.580Z,3.82
2018-12-10T08:24:35.592Z,3.80
2018-12-10T08:27:09.411Z,4.01
2018-12-10T08:29:36.761Z,4.16
2018-12-10T08:32:05.814Z,4.18
2018-12-10T08:34:44.889Z,4.20
2018-12-10T08:37:06.068Z,4.31
2018-12-10T08:39:35.741Z,4.43
2018-12-10T08:42:04.816Z,4.39
2018-12-10T08:44:33.983Z,4.39
2018-12-10T08:47:03.643Z,4.34
2018-12-10T08:49:33.276Z,4.50
2018-12-10T08:52:02.497Z,4.66
2018-12-10T08:54:31.519Z,4.75
2018-12-10T08:57:00.571Z,4.93
2018-12-10T08:59:29.722Z,4.91
2018-12-10T09:01:58.817Z,4.80
2018-12-10T09:04:27.857Z,4.74
2018-12-10T09:06:56.892Z,4.65
2018-12-10T09:09:25.919Z,4.46
2018-12-10T09:11:55.053Z,4.35
2018-12-10T09:14:24.140Z,4.37
2018-12-10T09:16:53.221Z,4.46
2018-12-10T09:19:22.404Z,4.52
2018-12-10T09:21:51.691Z,4.55
2018-12-10T09:24:20.727Z,4.50
2018-12-10T09:26:49.856Z,4.51
2018-12-10T09:29:18.906Z,4.54
2018-12-10T09:31:47.930Z,4.56
2018-12-10T09:34:16.922Z,4.51
2018-12-10T09:36:46.026Z,4.43
2018-12-10T09:39:15.044Z,4.47
2018-12-10T09:41:44.465Z,4.89
2018-12-10T09:44:13.502Z,6.28
2018-12-10T09:46:42.500Z,6.21
2018-12-10T09:49:11.647Z,5.76
2018-12-10T09:51:40.653Z,5.45
2018-12-10T09:54:09.735Z,5.19
2018-12-10T09:56:38.868Z,5.07
2018-12-10T09:59:08.004Z,5.15
2018-12-10T10:01:37.728Z,5.25
2018-12-10T10:04:06.719Z,5.50
2018-12-10T10:06:35.800Z,5.51
2018-12-10T10:09:06.530Z,5.54
2018-12-10T10:11:35.695Z,5.88
2018-12-10T10:14:04.833Z,6.66
2018-12-10T10:16:33.846Z,6.14
2018-12-10T10:19:02.868Z,5.77
2018-12-10T10:21:31.915Z,5.55
2018-12-10T10:24:01.050Z,5.60
2018-12-10T10:26:30.160Z,5.53
2018-12-10T10:29:05.727Z,5.37
2018-12-10T10:31:34.744Z,5.10
2018-12-10T10:34:03.808Z,5.07
2018-12-10T10:36:32.867Z,5.23
2018-12-10T10:39:01.906Z,5.25
2018-12-10T10:41:31.402Z,5.25
2018-12-10T10:44:02.011Z,5.78
2018-12-10T10:46:31.256Z,5.73
2018-12-10T10:49:00.352Z,5.46
2018-12-10T10:51:29.509Z,4.97
2018-12-10T10:53:58.608Z,4.64
2018-12-10T10:56:27.656Z,4.42
2018-12-10T10:58:56.660Z,4.30
2018-12-10T11:02:04.567Z,4.31
2018-12-10T11:04:37.520Z,4.42
2018-12-10T11:07:04.819Z,4.35
2018-12-10T11:09:33.866Z,4.88
2018-12-10T11:12:03.133Z,5.44
2018-12-10T11:14:32.117Z,5.37
2018-12-10T11:17:01.368Z,5.72
2018-12-10T11:19:30.438Z,7.49
2018-12-10T11:21:59.451Z,7.19
2018-12-10T11:24:28.461Z,6.28
2018-12-10T11:26:57.524Z,5.44
2018-12-10T11:29:26.645Z,5.23
2018-12-10T11:31:55.802Z,4.95
2018-12-10T11:34:24.903Z,4.68
2018-12-10T11:36:54.064Z,4.57
2018-12-10T11:39:23.095Z,5.93
2018-12-10T11:41:52.244Z,5.83
2018-12-10T11:44:21.350Z,7.56
2018-12-10T11:46:50.458Z,8.64
2018-12-10T11:49:19.474Z,7.41
2018-12-10T11:51:48.487Z,8.44
2018-12-10T11:54:17.728Z,9.75
2018-12-10T11:56:46.738Z,8.36
2018-12-10T11:59:15.859Z,8.29
2018-12-10T12:01:44.870Z,7.41
2018-12-10T12:04:13.915Z,7.26
2018-12-10T12:06:43.035Z,7.17
2018-12-10T12:09:12.022Z,6.92
2018-12-10T12:11:41.210Z,6.36
2018-12-10T12:14:10.293Z,6.16
2018-12-10T12:16:39.700Z,6.19
2018-12-10T12:19:11.376Z,6.08
2018-12-10T12:21:40.445Z,6.14
2018-12-10T12:24:09.430Z,6.04
2018-12-10T12:26:38.442Z,6.88
2018-12-10T12:29:07.523Z,7.73
2018-12-10T12:31:36.727Z,6.63
2018-12-10T12:34:06.062Z,5.88
2018-12-10T12:39:07.440Z,3.98
2018-12-10T12:41:36.484Z,3.46
2018-12-10T12:44:05.574Z,3.24
2018-12-10T12:46:34.591Z,3.10
2018-12-10T12:49:03.651Z,3.02
2018-12-10T12:51:32.671Z,2.98
2018-12-10T12:54:01.711Z,2.93
2018-12-10T12:56:30.805Z,2.89
2018-12-10T12:58:59.953Z,2.88
2018-12-10T13:01:29.073Z,2.95
2018-12-10T13:03:58.171Z,2.94
2018-12-10T13:06:27.437Z,2.95
2018-12-10T13:08:56.520Z,2.93
2018-12-10T13:11:25.587Z,2.99
2018-12-10T13:13:54.676Z,3.02
2018-12-10T13:16:23.843Z,3.15
2018-12-10T13:18:52.951Z,3.32
2018-12-10T13:21:21.978Z,3.55
2018-12-10T13:23:51.002Z,3.66
2018-12-10T13:26:19.978Z,3.68
2018-12-10T13:28:49.071Z,3.62
2018-12-10T13:31:18.066Z,3.48
2018-12-10T13:33:47.172Z,3.35
2018-12-10T13:36:16.279Z,3.28
2018-12-10T13:38:45.287Z,3.18
2018-12-10T13:41:14.387Z,3.20
2018-12-10T13:43:44.360Z,3.35
2018-12-10T13:46:13.517Z,3.48
2018-12-10T13:48:42.516Z,3.50
2018-12-10T13:51:11.509Z,3.53
2018-12-10T13:53:40.681Z,3.44
2018-12-10T13:56:09.759Z,3.38
2018-12-10T13:58:38.767Z,3.36
2018-12-10T14:01:07.928Z,3.36
2018-12-10T14:03:36.935Z,3.35
2018-12-10T14:06:06.141Z,3.26
2018-12-10T14:08:35.264Z,3.29
2018-12-10T14:11:04.386Z,3.30
2018-12-10T14:13:33.437Z,3.36
2018-12-10T14:16:02.441Z,3.34
2018-12-10T14:18:31.554Z,3.39
2018-12-10T14:21:00.635Z,3.40
2018-12-10T14:23:29.705Z,3.42
2018-12-10T14:25:59.007Z,3.40
2018-12-10T14:28:28.173Z,3.35
2018-12-10T14:30:57.992Z,3.25
2018-12-10T14:33:27.235Z,3.25
2018-12-10T14:35:56.225Z,3.40
2018-12-10T14:38:25.510Z,3.42
2018-12-10T14:40:54.495Z,3.35
2018-12-10T14:43:23.630Z,3.34
2018-12-10T14:45:52.620Z,3.49
2018-12-10T14:48:21.691Z,3.66
2018-12-10T14:50:50.802Z,3.76
2018-12-10T14:53:19.802Z,3.70
2018-12-10T14:55:48.843Z,3.57
2018-12-10T14:58:17.854Z,3.47
2018-12-10T15:00:47.019Z,3.38
2018-12-10T15:03:16.095Z,3.27
2018-12-10T15:05:45.194Z,3.21
2018-12-10T15:08:14.297Z,3.04
2018-12-10T15:10:43.382Z,3.05
2018-12-10T15:13:12.379Z,3.03
2018-12-10T15:15:41.396Z,3.00
2018-12-10T15:18:10.403Z,2.99
2018-12-10T15:20:39.446Z,3.02
2018-12-10T15:23:08.623Z,3.02
2018-12-10T15:25:37.739Z,2.99
2018-12-10T15:28:06.845Z,3.08
2018-12-10T15:30:36.426Z,3.13
2018-12-10T15:33:06.003Z,3.03
2018-12-10T15:35:35.083Z,3.17
2018-12-10T15:38:04.281Z,3.14
2018-12-10T15:40:33.313Z,3.11
2018-12-10T15:43:03.063Z,3.08
2018-12-10T15:45:32.102Z,3.04
2018-12-10T15:48:01.129Z,2.97
2018-12-10T15:50:30.164Z,2.93
2018-12-10T15:52:59.198Z,2.81
2018-12-10T15:55:28.373Z,2.79
2018-12-10T15:57:57.391Z,2.75
2018-12-10T16:00:26.516Z,2.68
2018-12-10T16:02:55.694Z,2.77
2018-12-10T16:05:24.810Z,2.83
2018-12-10T16:07:53.823Z,2.80
2018-12-10T16:10:22.986Z,2.76
2018-12-10T16:12:52.009Z,2.83
2018-12-10T16:15:21.035Z,2.82
2018-12-10T16:17:50.298Z,2.80
2018-12-10T16:20:19.459Z,2.74
2018-12-10T16:22:48.601Z,2.89
2018-12-10T16:25:17.722Z,2.85
2018-12-10T16:27:47.145Z,2.93
2018-12-10T16:30:16.794Z,3.03
2018-12-10T16:32:46.013Z,3.06
2018-12-10T16:35:15.165Z,3.23
2018-12-10T16:37:44.424Z,3.50
2018-12-10T16:40:13.530Z,3.66
2018-12-10T16:42:42.626Z,3.82
2018-12-10T16:45:11.892Z,3.81
2018-12-10T16:47:41.046Z,3.89
2018-12-10T16:50:10.298Z,3.81
2018-12-10T16:52:39.371Z,3.80
2018-12-10T16:55:08.521Z,3.89
2018-12-10T16:57:37.638Z,3.81
2018-12-10T17:00:10.514Z,3.65
2018-12-10T17:02:39.626Z,3.59
2018-12-10T17:05:09.322Z,3.64
2018-12-10T17:07:38.425Z,3.61
2018-12-10T17:10:09.873Z,3.74
2018-12-10T17:12:40.079Z,3.80
2018-12-10T17:15:09.527Z,3.77
2018-12-10T17:17:38.555Z,3.78
2018-12-10T17:20:08.153Z,3.79
2018-12-10T17:22:37.427Z,3.79
2018-12-10T17:25:07.091Z,3.83
2018-12-10T17:27:36.387Z,3.87
2018-12-10T17:30:06.244Z,4.06
2018-12-10T17:32:35.285Z,4.18
2018-12-10T17:35:05.021Z,4.26
2018-12-10T17:37:34.138Z,4.28
2018-12-10T17:40:03.647Z,4.32
2018-12-10T17:42:32.788Z,4.24
2018-12-10T17:45:01.869Z,4.30
2018-12-10T17:47:30.963Z,4.37
2018-12-10T17:50:00.334Z,4.33
2018-12-10T17:52:29.343Z,4.30
2018-12-10T17:54:58.522Z,4.29
2018-12-10T17:57:27.623Z,4.26
2018-12-10T17:59:56.711Z,4.01
2018-12-10T18:02:25.747Z,3.88
2018-12-10T18:04:55.135Z,3.72
2018-12-10T18:07:24.274Z,3.63
2018-12-10T18:09:53.404Z,3.71
2018-12-10T18:12:22.418Z,3.87
2018-12-10T18:14:51.482Z,3.98
2018-12-10T18:17:20.501Z,4.01
2018-12-10T18:19:49.638Z,4.03
2018-12-10T18:22:18.658Z,3.99
2018-12-10T18:24:47.763Z,3.98
2018-12-10T18:27:16.906Z,3.95
2018-12-10T18:29:45.998Z,3.92
2018-12-10T18:32:15.038Z,3.91
2018-12-10T18:34:44.086Z,3.86
2018-12-10T18:37:13.213Z,3.71
2018-12-10T18:39:42.261Z,3.70
2018-12-10T18:42:11.269Z,3.75
2018-12-10T18:44:40.311Z,3.84
2018-12-10T18:47:09.492Z,3.72
2018-12-10T18:49:38.656Z,3.66
2018-12-10T18:52:07.682Z,3.76
2018-12-10T18:54:37.710Z,3.77
2018-12-10T18:57:06.765Z,3.81
2018-12-10T18:59:36.067Z,3.83
2018-12-10T19:02:05.610Z,3.80
2018-12-10T19:04:34.598Z,3.82
2018-12-10T19:07:03.781Z,3.82
2018-12-10T19:09:33.092Z,3.79
2018-12-10T19:12:02.292Z,3.71
2018-12-10T19:14:31.382Z,3.78
2018-12-10T19:17:00.412Z,3.80
2018-12-10T19:19:29.644Z,3.78
2018-12-10T19:21:58.857Z,3.77
2018-12-10T19:24:28.568Z,3.69
2018-12-10T19:26:58.097Z,3.64
2018-12-10T19:29:27.222Z,3.59
2018-12-10T19:31:56.393Z,3.65
2018-12-10T19:34:25.596Z,3.72
2018-12-10T19:36:54.815Z,3.58
2018-12-10T19:39:23.993Z,3.57
2018-12-10T19:41:53.378Z,3.64
2018-12-10T19:44:24.819Z,3.63
2018-12-10T19:46:54.717Z,3.60
2018-12-10T19:49:25.203Z,3.59
2018-12-10T19:52:00.365Z,3.47
2018-12-10T19:54:29.476Z,3.45
2018-12-10T19:57:00.651Z,3.46
2018-12-10T19:59:30.118Z,3.46
2018-12-10T20:01:59.584Z,3.45
2018-12-10T20:04:28.997Z,3.32
2018-12-10T20:07:03.637Z,3.27
2018-12-10T20:09:33.056Z,3.27
2018-12-10T20:12:02.545Z,3.27
2018-12-10T20:14:32.227Z,3.29
2018-12-10T20:17:02.531Z,3.25
2018-12-10T20:19:31.789Z,3.23
2018-12-10T20:22:00.973Z,3.16
2018-12-10T20:24:30.337Z,3.19
2018-12-10T20:26:59.702Z,3.25
2018-12-10T20:29:29.081Z,3.26
2018-12-10T20:31:59.231Z,3.31
2018-12-10T20:34:28.723Z,3.27
2018-12-10T20:36:58.109Z,3.21
2018-12-10T20:39:27.376Z,3.28
2018-12-10T20:41:56.707Z,3.36
2018-12-10T20:44:26.240Z,3.28
2018-12-10T20:46:55.544Z,3.29
2018-12-10T20:49:25.810Z,3.29
2018-12-10T20:51:55.206Z,3.37
2018-12-10T20:54:24.376Z,3.28
2018-12-10T20:56:53.637Z,3.22
2018-12-10T20:59:23.075Z,3.17
2018-12-10T21:01:52.959Z,3.15
2018-12-10T21:04:22.084Z,3.07
2018-12-10T21:06:51.403Z,3.13
2018-12-10T21:09:20.716Z,3.18
2018-12-10T21:11:50.044Z,3.19
2018-12-10T21:14:19.280Z,3.15
2018-12-10T21:16:48.442Z,3.18
2018-12-10T21:19:17.662Z,3.28
2018-12-10T21:21:46.919Z,3.35
2018-12-10T21:24:17.195Z,3.35
2018-12-10T21:26:46.357Z,3.34
2018-12-10T21:29:15.485Z,3.49
2018-12-10T21:31:44.817Z,3.60
2018-12-10T21:34:14.027Z,3.70
2018-12-10T21:36:43.135Z,3.74
2018-12-10T21:39:12.264Z,3.78
2018-12-10T21:41:43.458Z,3.86
2018-12-10T21:44:12.742Z,3.82
2018-12-10T21:46:41.757Z,3.89
2018-12-10T21:49:10.891Z,3.93
2018-12-10T21:51:39.985Z,3.97
2018-12-10T21:54:09.136Z,3.91
2018-12-10T21:56:38.180Z,3.86
2018-12-10T21:59:07.335Z,3.87
2018-12-10T22:01:36.462Z,3.91
2018-12-10T22:04:05.656Z,3.91
2018-12-10T22:06:34.871Z,3.93
2018-12-10T22:09:05.968Z,3.95
2018-12-10T22:11:34.967Z,3.92
2018-12-10T22:14:04.079Z,3.96
2018-12-10T22:16:33.167Z,4.02
2018-12-10T22:19:02.239Z,4.06
2018-12-10T22:21:31.227Z,4.13
2018-12-10T22:24:00.335Z,4.20
2018-12-10T22:26:29.412Z,4.18
2018-12-10T22:28:58.589Z,4.13
2018-12-10T22:31:27.633Z,4.12
2018-12-10T22:33:56.738Z,4.11
2018-12-10T22:36:25.823Z,4.22
2018-12-10T22:38:54.901Z,4.23
2018-12-10T22:41:23.996Z,4.19
2018-12-10T22:43:53.204Z,4.17
2018-12-10T22:46:22.387Z,4.23
2018-12-10T22:48:51.392Z,4.18
2018-12-10T22:51:20.485Z,4.09
2018-12-10T22:53:49.515Z,4.10
2018-12-10T22:56:18.538Z,4.07
2018-12-10T22:58:47.715Z,4.07
2018-12-10T23:01:16.893Z,4.05
2018-12-10T23:03:46.045Z,4.07
2018-12-10T23:06:15.096Z,4.10
2018-12-10T23:08:44.098Z,4.14
2018-12-10T23:11:13.085Z,4.10
2018-12-10T23:13:42.116Z,4.10
2018-12-10T23:16:11.155Z,4.11
2018-12-10T23:18:40.329Z,4.14
2018-12-10T23:21:09.429Z,4.17
2018-12-10T23:23:38.571Z,4.23
2018-12-10T23:26:07.675Z,4.21
2018-12-10T23:28:36.749Z,4.23
2018-12-10T23:31:05.753Z,4.22
2018-12-10T23:33:34.774Z,4.23
2018-12-10T23:36:03.857Z,4.26
2018-12-10T23:38:32.863Z,4.28
2018-12-10T23:41:01.855Z,4.26
2018-12-10T23:43:30.890Z,4.31
2018-12-10T23:45:59.998Z,4.33
2018-12-10T23:48:28.971Z,4.25
2018-12-10T23:50:58.016Z,4.25
2018-12-10T23:53:27.015Z,4.36
2018-12-10T23:55:56.034Z,4.38
2018-12-10T23:58:25.052Z,4.27
